createdAt,value
2023-05-13T00:00:03.501Z,25.000000
2023-05-13T00:01:00.574Z,25.000000
2023-05-13T00:02:00.659Z,25.000000
2023-05-13T00:03:00.654Z,25.000000
2023-05-13T00:04:00.870Z,25.000000
2023-05-13T00:05:03.045Z,25.000000
2023-05-13T00:06:00.762Z,25.000000
2023-05-13T00:07:00.599Z,25.000000
2023-05-13T00:08:01.570Z,25.000000
2023-05-13T00:09:00.602Z,25.000000
2023-05-13T00:10:03.678Z,25.000000
2023-05-13T00:11:00.595Z,25.000000
2023-05-13T00:12:00.692Z,25.000000
2023-05-13T00:13:00.620Z,25.000000
2023-05-13T00:14:01.597Z,25.000000
2023-05-13T00:15:03.089Z,25.000000
2023-05-13T00:16:00.748Z,25.000000
2023-05-13T00:17:00.655Z,25.000000
2023-05-13T00:18:00.835Z,25.000000
2023-05-13T00:19:00.683Z,25.000000
2023-05-13T00:20:03.642Z,25.000000
2023-05-13T00:21:00.733Z,25.000000
2023-05-13T00:22:00.748Z,25.000000
2023-05-13T00:23:00.712Z,25.000000
2023-05-13T00:24:00.755Z,25.000000
2023-05-13T00:25:03.161Z,25.000000
2023-05-13T00:26:00.756Z,25.000000
2023-05-13T00:27:00.720Z,22.500000
2023-05-13T00:28:01.613Z,22.500000
2023-05-13T00:29:00.710Z,22.500000
2023-05-13T00:30:03.878Z,22.500000
2023-05-13T00:31:00.705Z,22.500000
2023-05-13T00:32:01.811Z,22.500000
2023-05-13T00:33:00.842Z,22.500000
2023-05-13T00:34:00.844Z,22.500000
2023-05-13T00:35:03.183Z,22.500000
2023-05-13T00:36:01.595Z,22.500000
2023-05-13T00:37:00.735Z,22.500000
2023-05-13T00:38:00.835Z,22.500000
2023-05-13T00:39:00.762Z,25.000000
2023-05-13T00:40:03.862Z,25.000000
2023-05-13T00:41:00.757Z,25.000000
2023-05-13T00:42:00.868Z,25.000000
2023-05-13T00:43:00.764Z,25.000000
2023-05-13T00:44:03.928Z,25.000000
2023-05-13T00:45:05.871Z,25.000000
2023-05-13T00:46:00.919Z,25.000000
2023-05-13T00:47:00.804Z,25.000000
2023-05-13T00:48:00.932Z,25.000000
2023-05-13T00:49:00.801Z,25.000000
2023-05-13T00:50:03.733Z,25.000000
2023-05-13T00:51:00.845Z,25.000000
2023-05-13T00:52:00.874Z,25.000000
2023-05-13T00:53:00.816Z,25.000000
2023-05-13T00:54:00.917Z,25.000000
2023-05-13T00:55:03.510Z,25.000000
2023-05-13T00:56:00.927Z,25.000000
2023-05-13T00:57:00.869Z,25.000000
2023-05-13T00:58:01.598Z,25.000000
2023-05-13T00:59:00.870Z,25.000000
2023-05-13T01:00:03.857Z,25.000000
2023-05-13T01:01:00.885Z,25.000000
2023-05-13T01:02:01.002Z,25.000000
2023-05-13T01:03:01.034Z,25.000000
2023-05-13T01:04:00.980Z,25.000000
2023-05-13T01:05:03.473Z,25.000000
2023-05-13T01:06:01.001Z,25.000000
2023-05-13T01:07:00.915Z,25.000000
2023-05-13T01:08:00.988Z,25.000000
2023-05-13T01:09:00.954Z,25.000000
2023-05-13T01:10:04.042Z,25.000000
2023-05-13T01:11:00.965Z,25.000000
2023-05-13T01:12:01.021Z,25.000000
2023-05-13T01:13:00.948Z,25.000000
2023-05-13T01:14:01.039Z,25.000000
2023-05-13T01:15:03.558Z,25.000000
2023-05-13T01:16:01.042Z,25.000000
2023-05-13T01:17:01.013Z,25.000000
2023-05-13T01:18:01.091Z,25.000000
2023-05-13T01:19:01.037Z,25.000000
2023-05-13T01:20:03.945Z,25.000000
2023-05-13T01:21:01.028Z,25.000000
2023-05-13T01:22:01.090Z,25.000000
2023-05-13T01:23:00.998Z,67.500000
2023-05-13T01:24:01.623Z,67.500000
2023-05-13T01:25:03.660Z,125.000000
2023-05-13T01:26:01.101Z,125.000000
2023-05-13T01:27:01.058Z,125.000000
2023-05-13T01:28:01.104Z,125.000000
2023-05-13T01:29:01.057Z,125.000000
2023-05-13T01:30:03.888Z,125.000000
2023-05-13T01:31:01.064Z,125.000000
2023-05-13T01:32:01.139Z,125.000000
2023-05-13T01:33:01.114Z,125.000000
2023-05-13T01:34:01.134Z,125.000000
2023-05-13T01:35:03.444Z,125.000000
2023-05-13T01:36:01.159Z,125.000000
2023-05-13T01:37:01.087Z,125.000000
2023-05-13T01:38:01.646Z,125.000000
2023-05-13T01:39:01.133Z,125.000000
2023-05-13T01:40:14.389Z,125.000000
2023-05-13T01:41:01.124Z,125.000000
2023-05-13T01:42:01.185Z,125.000000
2023-05-13T01:43:01.122Z,125.000000
2023-05-13T01:44:01.190Z,125.000000
2023-05-13T01:45:03.662Z,122.500000
2023-05-13T01:46:01.210Z,122.500000
2023-05-13T01:47:01.143Z,110.000000
2023-05-13T01:48:02.317Z,110.000000
2023-05-13T01:49:01.126Z,105.000000
2023-05-13T01:50:04.798Z,105.000000
2023-05-13T01:51:01.174Z,105.000000
2023-05-13T01:52:01.606Z,107.500000
2023-05-13T01:53:00.213Z,107.500000
2023-05-13T01:54:00.269Z,107.500000
2023-05-13T01:55:02.793Z,107.500000
2023-05-13T01:56:01.617Z,107.500000
2023-05-13T01:57:00.189Z,107.500000
2023-05-13T01:58:00.256Z,107.500000
2023-05-13T01:59:00.188Z,107.500000
2023-05-13T02:00:03.334Z,107.500000
2023-05-13T02:01:00.237Z,107.500000
2023-05-13T02:02:00.355Z,107.500000
2023-05-13T02:03:00.385Z,107.500000
2023-05-13T02:04:00.420Z,107.500000
2023-05-13T02:05:02.974Z,25.000000
2023-05-13T02:06:00.350Z,25.000000
2023-05-13T02:07:00.284Z,25.000000
2023-05-13T02:08:00.397Z,330.000000
2023-05-13T02:09:00.305Z,330.000000
2023-05-13T02:10:06.688Z,330.000000
2023-05-13T02:11:00.296Z,330.000000
2023-05-13T02:12:00.415Z,330.000000
2023-05-13T02:13:00.302Z,330.000000
2023-05-13T02:14:00.403Z,330.000000
2023-05-13T02:15:02.766Z,330.000000
2023-05-13T02:16:00.436Z,330.000000
2023-05-13T02:17:00.324Z,330.000000
2023-05-13T02:18:00.467Z,330.000000
2023-05-13T02:19:00.360Z,330.000000
2023-05-13T02:20:03.316Z,330.000000
2023-05-13T02:21:00.374Z,330.000000
2023-05-13T02:22:00.434Z,330.000000
2023-05-13T02:23:00.356Z,330.000000
2023-05-13T02:24:01.623Z,330.000000
2023-05-13T02:25:02.868Z,330.000000
2023-05-13T02:26:00.472Z,330.000000
2023-05-13T02:27:00.410Z,330.000000
2023-05-13T02:28:00.465Z,30.000000
2023-05-13T02:29:00.381Z,30.000000
2023-05-13T02:30:03.355Z,30.000000
2023-05-13T02:31:00.418Z,120.000000
2023-05-13T02:32:00.525Z,120.000000
2023-05-13T02:33:00.432Z,120.000000
2023-05-13T02:34:00.500Z,120.000000
2023-05-13T02:35:03.723Z,120.000000
2023-05-13T02:36:00.531Z,120.000000
2023-05-13T02:37:00.432Z,120.000000
2023-05-13T02:38:01.629Z,120.000000
2023-05-13T02:39:00.466Z,120.000000
2023-05-13T02:40:03.253Z,120.000000
2023-05-13T02:41:00.463Z,120.000000
2023-05-13T02:42:00.578Z,120.000000
2023-05-13T02:43:00.471Z,120.000000
2023-05-13T02:44:00.584Z,120.000000
2023-05-13T02:45:03.182Z,120.000000
2023-05-13T02:46:00.565Z,120.000000
2023-05-13T02:47:00.501Z,120.000000
2023-05-13T02:48:00.632Z,120.000000
2023-05-13T02:49:00.506Z,120.000000
2023-05-13T02:50:03.171Z,120.000000
2023-05-13T02:51:00.513Z,120.000000
2023-05-13T02:52:01.607Z,120.000000
2023-05-13T02:53:00.529Z,120.000000
2023-05-13T02:54:00.637Z,120.000000
2023-05-13T02:55:03.239Z,120.000000
2023-05-13T02:56:00.605Z,120.000000
2023-05-13T02:57:00.560Z,120.000000
2023-05-13T02:58:00.643Z,120.000000
2023-05-13T02:59:00.564Z,120.000000
2023-05-13T03:00:03.816Z,120.000000
2023-05-13T03:01:00.674Z,117.500000
2023-05-13T03:02:00.674Z,117.500000
2023-05-13T03:03:00.728Z,110.000000
2023-05-13T03:04:00.668Z,110.000000
2023-05-13T03:05:03.052Z,110.000000
2023-05-13T03:06:01.783Z,110.000000
2023-05-13T03:07:00.605Z,110.000000
2023-05-13T03:08:00.713Z,110.000000
2023-05-13T03:09:00.638Z,110.000000
2023-05-13T03:10:04.206Z,110.000000
2023-05-13T03:11:00.642Z,110.000000
2023-05-13T03:12:00.738Z,110.000000
2023-05-13T03:13:00.665Z,112.500000
2023-05-13T03:14:00.796Z,112.500000
2023-05-13T03:15:03.722Z,112.500000
2023-05-13T03:16:00.779Z,110.000000
2023-05-13T03:17:00.693Z,110.000000
2023-05-13T03:18:00.825Z,110.000000
2023-05-13T03:19:00.699Z,110.000000
2023-05-13T03:20:05.183Z,110.000000
2023-05-13T03:21:00.729Z,110.000000
2023-05-13T03:22:00.775Z,110.000000
2023-05-13T03:23:00.712Z,110.000000
2023-05-13T03:24:01.614Z,110.000000
2023-05-13T03:25:03.236Z,110.000000
2023-05-13T03:26:00.812Z,110.000000
2023-05-13T03:27:00.739Z,110.000000
2023-05-13T03:28:00.789Z,110.000000
2023-05-13T03:29:00.736Z,112.500000
2023-05-13T03:30:04.832Z,112.500000
2023-05-13T03:31:00.783Z,110.000000
2023-05-13T03:32:00.843Z,110.000000
2023-05-13T03:33:00.824Z,110.000000
2023-05-13T03:34:00.825Z,110.000000
2023-05-13T03:35:03.232Z,110.000000
2023-05-13T03:36:00.850Z,110.000000
2023-05-13T03:37:00.776Z,67.500000
2023-05-13T03:38:01.666Z,67.500000
2023-05-13T03:39:00.796Z,2.500000
2023-05-13T03:40:03.825Z,2.500000
2023-05-13T03:41:00.800Z,0.000000
2023-05-13T03:42:01.649Z,0.000000
2023-05-13T03:43:00.811Z,0.000000
2023-05-13T03:44:00.917Z,355.000000
2023-05-13T03:45:03.239Z,355.000000
2023-05-13T03:46:01.650Z,355.000000
2023-05-13T03:47:00.904Z,355.000000
2023-05-13T03:48:00.928Z,355.000000
2023-05-13T03:49:00.856Z,355.000000
2023-05-13T03:50:03.949Z,355.000000
2023-05-13T03:51:00.852Z,355.000000
2023-05-13T03:52:00.918Z,355.000000
2023-05-13T03:53:00.827Z,355.000000
2023-05-13T03:54:01.677Z,355.000000
2023-05-13T03:55:03.313Z,355.000000
2023-05-13T03:56:00.951Z,355.000000
2023-05-13T03:57:00.870Z,355.000000
2023-05-13T03:58:00.914Z,355.000000
2023-05-13T03:59:00.887Z,355.000000
2023-05-13T04:00:04.322Z,355.000000
2023-05-13T04:01:00.920Z,355.000000
2023-05-13T04:02:01.051Z,355.000000
2023-05-13T04:03:00.926Z,355.000000
2023-05-13T04:04:01.017Z,355.000000
2023-05-13T04:05:03.438Z,355.000000
2023-05-13T04:06:01.014Z,355.000000
2023-05-13T04:07:00.935Z,355.000000
2023-05-13T04:08:01.641Z,355.000000
2023-05-13T04:09:00.965Z,355.000000
2023-05-13T04:10:04.086Z,355.000000
2023-05-13T04:11:00.963Z,355.000000
2023-05-13T04:12:01.061Z,350.000000
2023-05-13T04:13:00.981Z,350.000000
2023-05-13T04:14:01.094Z,350.000000
2023-05-13T04:15:03.453Z,330.000000
2023-05-13T04:16:01.075Z,330.000000
2023-05-13T04:17:01.082Z,320.000000
2023-05-13T04:18:01.134Z,320.000000
2023-05-13T04:19:01.026Z,317.500000
2023-05-13T04:20:03.902Z,317.500000
2023-05-13T04:21:01.029Z,317.500000
2023-05-13T04:22:01.101Z,317.500000
2023-05-13T04:23:01.021Z,317.500000
2023-05-13T04:24:01.684Z,107.500000
2023-05-13T04:25:04.637Z,107.500000
2023-05-13T04:26:01.148Z,107.500000
2023-05-13T04:27:01.560Z,132.500000
2023-05-13T04:28:01.126Z,132.500000
2023-05-13T04:29:01.062Z,132.500000
2023-05-13T04:30:04.252Z,150.000000
2023-05-13T04:31:01.119Z,150.000000
2023-05-13T04:32:01.297Z,122.500000
2023-05-13T04:33:01.121Z,122.500000
2023-05-13T04:34:01.186Z,122.500000
2023-05-13T04:35:03.669Z,135.000000
2023-05-13T04:36:01.207Z,135.000000
2023-05-13T04:37:01.108Z,115.000000
2023-05-13T04:38:01.178Z,115.000000
2023-05-13T04:39:01.295Z,37.500000
2023-05-13T04:40:04.269Z,37.500000
2023-05-13T04:41:01.154Z,37.500000
2023-05-13T04:42:02.280Z,120.000000
2023-05-13T04:43:00.156Z,120.000000
2023-05-13T04:44:01.908Z,127.500000
2023-05-13T04:45:03.305Z,127.500000
2023-05-13T04:46:00.307Z,127.500000
2023-05-13T04:47:00.190Z,340.000000
2023-05-13T04:48:00.343Z,340.000000
2023-05-13T04:49:00.199Z,10.000000
2023-05-13T04:50:03.586Z,10.000000
2023-05-13T04:51:00.241Z,10.000000
2023-05-13T04:52:00.286Z,122.500000
2023-05-13T04:53:00.250Z,122.500000
2023-05-13T04:54:00.305Z,122.500000
2023-05-13T04:55:02.749Z,107.500000
2023-05-13T04:56:00.304Z,107.500000
2023-05-13T04:57:00.268Z,120.000000
2023-05-13T04:58:00.302Z,120.000000
2023-05-13T04:59:00.243Z,80.000000
2023-05-13T05:00:05.060Z,80.000000
2023-05-13T05:01:00.313Z,80.000000
2023-05-13T05:02:00.509Z,87.500000
2023-05-13T05:03:00.381Z,87.500000
2023-05-13T05:04:00.395Z,87.500000
2023-05-13T05:05:03.323Z,120.000000
2023-05-13T05:06:00.437Z,120.000000
2023-05-13T05:07:00.369Z,120.000000
2023-05-13T05:08:00.388Z,62.500000
2023-05-13T05:09:00.329Z,62.500000
2023-05-13T05:10:03.423Z,55.000000
2023-05-13T05:11:00.350Z,55.000000
2023-05-13T05:12:00.442Z,0.000000
2023-05-13T05:13:00.344Z,0.000000
2023-05-13T05:14:00.421Z,0.000000
2023-05-13T05:15:02.992Z,0.000000
2023-05-13T05:16:00.436Z,0.000000
2023-05-13T05:17:00.403Z,0.000000
2023-05-13T05:18:00.655Z,350.000000
2023-05-13T05:19:00.389Z,350.000000
2023-05-13T05:20:05.448Z,120.000000
2023-05-13T05:21:02.445Z,120.000000
2023-05-13T05:22:00.462Z,105.000000
2023-05-13T05:23:00.383Z,105.000000
2023-05-13T05:24:00.496Z,105.000000
2023-05-13T05:25:02.719Z,110.000000
2023-05-13T05:26:10.505Z,110.000000
2023-05-13T05:27:00.413Z,110.000000
2023-05-13T05:28:01.875Z,125.000000
2023-05-13T05:29:00.435Z,125.000000
2023-05-13T05:30:04.113Z,127.500000
2023-05-13T05:31:00.433Z,127.500000
2023-05-13T05:32:00.570Z,127.500000
2023-05-13T05:33:00.547Z,132.500000
2023-05-13T05:34:00.530Z,132.500000
2023-05-13T05:35:03.002Z,142.500000
2023-05-13T05:36:00.611Z,142.500000
2023-05-13T05:37:00.478Z,142.500000
2023-05-13T05:38:00.559Z,150.000000
2023-05-13T05:39:00.520Z,150.000000
2023-05-13T05:40:03.700Z,140.000000
2023-05-13T05:41:00.500Z,140.000000
2023-05-13T05:42:01.915Z,140.000000
2023-05-13T05:43:00.510Z,117.500000
2023-05-13T05:44:00.700Z,117.500000
2023-05-13T05:45:03.136Z,120.000000
2023-05-13T05:46:00.624Z,120.000000
2023-05-13T05:47:00.517Z,120.000000
2023-05-13T05:48:00.681Z,120.000000
2023-05-13T05:49:00.542Z,120.000000
2023-05-13T05:50:03.829Z,120.000000
2023-05-13T05:51:00.539Z,120.000000
2023-05-13T05:52:00.666Z,120.000000
2023-05-13T05:53:00.583Z,120.000000
2023-05-13T05:54:00.728Z,120.000000
2023-05-13T05:55:03.180Z,120.000000
2023-05-13T05:56:01.889Z,120.000000
2023-05-13T05:57:00.600Z,120.000000
2023-05-13T05:58:00.690Z,120.000000
2023-05-13T05:59:00.612Z,120.000000
2023-05-13T06:00:04.019Z,120.000000
2023-05-13T06:01:00.631Z,120.000000
2023-05-13T06:02:00.780Z,120.000000
2023-05-13T06:03:00.722Z,117.500000
2023-05-13T06:04:00.787Z,117.500000
2023-05-13T06:05:04.082Z,107.500000
2023-05-13T06:06:00.753Z,107.500000
2023-05-13T06:07:00.792Z,107.500000
2023-05-13T06:08:00.737Z,102.500000
2023-05-13T06:09:00.670Z,102.500000
2023-05-13T06:10:05.031Z,102.500000
2023-05-13T06:11:00.699Z,105.000000
2023-05-13T06:12:00.772Z,105.000000
2023-05-13T06:13:00.696Z,102.500000
2023-05-13T06:14:01.914Z,102.500000
2023-05-13T06:15:04.275Z,125.000000
2023-05-13T06:16:00.894Z,125.000000
2023-05-13T06:17:00.725Z,125.000000
2023-05-13T06:18:00.861Z,115.000000
2023-05-13T06:19:00.779Z,115.000000
2023-05-13T06:20:04.026Z,115.000000
2023-05-13T06:21:00.736Z,135.000000
2023-05-13T06:22:03.240Z,135.000000
2023-05-13T06:23:00.765Z,140.000000
2023-05-13T06:24:00.823Z,140.000000
2023-05-13T06:25:03.523Z,140.000000
2023-05-13T06:26:00.872Z,132.500000
2023-05-13T06:27:00.765Z,132.500000
2023-05-13T06:28:03.179Z,110.000000
2023-05-13T06:29:00.782Z,110.000000
2023-05-13T06:30:04.120Z,110.000000
2023-05-13T06:31:00.828Z,120.000000
2023-05-13T06:32:01.892Z,120.000000
2023-05-13T06:33:02.440Z,117.500000
2023-05-13T06:34:00.955Z,117.500000
2023-05-13T06:35:03.386Z,110.000000
2023-05-13T06:36:00.895Z,110.000000
2023-05-13T06:37:00.828Z,110.000000
2023-05-13T06:38:00.911Z,122.500000
2023-05-13T06:39:00.857Z,122.500000
2023-05-13T06:40:04.210Z,122.500000
2023-05-13T06:41:00.858Z,112.500000
2023-05-13T06:42:00.983Z,112.500000
2023-05-13T06:43:00.857Z,107.500000
2023-05-13T06:44:00.941Z,107.500000
2023-05-13T06:45:03.325Z,107.500000
2023-05-13T06:46:01.951Z,77.500000
2023-05-13T06:47:00.902Z,77.500000
2023-05-13T06:48:01.008Z,15.000000
2023-05-13T06:49:00.876Z,15.000000
2023-05-13T06:50:04.241Z,15.000000
2023-05-13T06:51:00.925Z,7.500000
2023-05-13T06:52:01.008Z,7.500000
2023-05-13T06:53:00.909Z,7.500000
2023-05-13T06:54:00.995Z,85.000000
2023-05-13T06:55:03.580Z,85.000000
2023-05-13T06:56:01.006Z,120.000000
2023-05-13T06:57:00.937Z,120.000000
2023-05-13T06:58:01.054Z,120.000000
2023-05-13T06:59:00.939Z,232.500000
2023-05-13T07:00:04.315Z,232.500000
2023-05-13T07:01:01.006Z,155.000000
2023-05-13T07:02:01.041Z,155.000000
2023-05-13T07:03:01.032Z,155.000000
2023-05-13T07:04:02.014Z,60.000000
2023-05-13T07:05:03.516Z,60.000000
2023-05-13T07:06:01.091Z,45.000000
2023-05-13T07:07:01.004Z,45.000000
2023-05-13T07:08:01.079Z,45.000000
2023-05-13T07:09:01.109Z,7.500000
2023-05-13T07:10:06.658Z,7.500000
2023-05-13T07:11:01.023Z,325.000000
2023-05-13T07:12:01.133Z,325.000000
2023-05-13T07:13:01.048Z,325.000000
2023-05-13T07:14:01.916Z,145.000000
2023-05-13T07:15:03.978Z,145.000000
2023-05-13T07:16:01.162Z,145.000000
2023-05-13T07:17:01.096Z,132.500000
2023-05-13T07:18:01.201Z,132.500000
2023-05-13T07:19:01.126Z,125.000000
2023-05-13T07:20:04.551Z,125.000000
2023-05-13T07:21:01.091Z,125.000000
2023-05-13T07:22:01.199Z,305.000000
2023-05-13T07:23:01.120Z,305.000000
2023-05-13T07:24:01.195Z,317.500000
2023-05-13T07:25:03.521Z,317.500000
2023-05-13T07:26:01.212Z,0.000000
2023-05-13T07:27:01.169Z,0.000000
2023-05-13T07:28:01.908Z,0.000000
2023-05-13T07:29:01.129Z,320.000000
2023-05-13T07:30:04.605Z,320.000000
2023-05-13T07:31:00.254Z,320.000000
2023-05-13T07:33:05.509Z,317.500000
2023-05-13T07:34:00.248Z,5.000000
2023-05-13T07:35:02.630Z,5.000000
2023-05-13T07:36:01.290Z,5.000000
2023-05-13T07:37:00.218Z,350.000000
2023-05-13T07:38:00.303Z,350.000000
2023-05-13T07:39:00.409Z,57.500000
2023-05-13T07:40:03.468Z,57.500000
2023-05-13T07:41:00.205Z,57.500000
2023-05-13T07:42:00.290Z,175.000000
2023-05-13T07:43:00.229Z,175.000000
2023-05-13T07:44:01.966Z,215.000000
2023-05-13T07:45:03.168Z,215.000000
2023-05-13T07:46:00.333Z,167.500000
2023-05-13T07:47:00.324Z,167.500000
2023-05-13T07:48:00.347Z,167.500000
2023-05-13T07:49:00.245Z,257.500000
2023-05-13T07:50:03.305Z,257.500000
2023-05-13T07:51:00.261Z,257.500000
2023-05-13T07:52:02.013Z,132.500000
2023-05-13T07:53:00.273Z,132.500000
2023-05-13T07:54:00.384Z,315.000000
2023-05-13T07:55:02.829Z,315.000000
2023-05-13T07:56:01.961Z,325.000000
2023-05-13T07:57:00.283Z,325.000000
2023-05-13T07:58:00.354Z,325.000000
2023-05-13T07:59:00.304Z,0.000000
2023-05-13T08:00:06.283Z,0.000000
2023-05-13T08:01:01.391Z,0.000000
2023-05-13T08:02:04.826Z,140.000000
2023-05-13T08:03:01.479Z,140.000000
2023-05-13T08:04:01.606Z,225.000000
2023-05-13T08:05:04.899Z,225.000000
2023-05-13T08:06:01.457Z,325.000000
2023-05-13T08:07:01.368Z,325.000000
2023-05-13T08:08:01.941Z,325.000000
2023-05-13T08:09:01.410Z,325.000000
2023-05-13T08:10:04.942Z,115.000000
2023-05-13T08:11:01.406Z,115.000000
2023-05-13T08:12:01.509Z,220.000000
2023-05-13T08:13:01.422Z,220.000000
2023-05-13T08:14:01.478Z,220.000000
2023-05-13T08:15:04.047Z,297.500000
2023-05-13T08:16:01.522Z,297.500000
2023-05-13T08:17:01.460Z,305.000000
2023-05-13T08:18:01.558Z,305.000000
2023-05-13T08:19:01.491Z,112.500000
2023-05-13T08:20:06.060Z,112.500000
2023-05-13T08:21:01.449Z,112.500000
2023-05-13T08:22:01.517Z,135.000000
2023-05-13T08:23:01.455Z,135.000000
2023-05-13T08:24:01.904Z,135.000000
2023-05-13T08:25:04.028Z,145.000000
2023-05-13T08:26:01.547Z,145.000000
2023-05-13T08:27:01.479Z,122.500000
2023-05-13T08:28:01.596Z,122.500000
2023-05-13T08:29:01.469Z,122.500000
2023-05-13T08:30:05.088Z,122.500000
2023-05-13T08:31:01.485Z,122.500000
2023-05-13T08:32:08.940Z,117.500000
2023-05-13T08:33:01.530Z,117.500000
2023-05-13T08:34:01.564Z,117.500000
2023-05-13T08:35:03.903Z,165.000000
2023-05-13T08:36:00.577Z,165.000000
2023-05-13T08:37:00.530Z,165.000000
2023-05-13T08:38:02.039Z,327.500000
2023-05-13T08:39:00.534Z,327.500000
2023-05-13T08:40:03.670Z,115.000000
2023-05-13T08:41:00.548Z,115.000000
2023-05-13T08:42:00.628Z,127.500000
2023-05-13T08:43:00.549Z,127.500000
2023-05-13T08:44:00.669Z,127.500000
2023-05-13T08:45:03.076Z,120.000000
2023-05-13T08:46:00.683Z,120.000000
2023-05-13T08:47:00.591Z,120.000000
2023-05-13T08:48:00.721Z,125.000000
2023-05-13T08:49:00.563Z,125.000000
2023-05-13T08:50:04.000Z,130.000000
2023-05-13T08:51:00.607Z,130.000000
2023-05-13T08:52:02.000Z,127.500000
2023-05-13T08:53:00.606Z,127.500000
2023-05-13T08:54:00.722Z,127.500000
2023-05-13T08:55:03.193Z,120.000000
2023-05-13T08:56:01.796Z,120.000000
2023-05-13T08:57:00.658Z,120.000000
2023-05-13T08:58:00.738Z,137.500000
2023-05-13T08:59:00.637Z,137.500000
2023-05-13T09:00:04.619Z,137.500000
2023-05-13T09:01:00.765Z,137.500000
2023-05-13T09:02:00.828Z,137.500000
2023-05-13T09:03:00.768Z,155.000000
2023-05-13T09:04:00.814Z,155.000000
2023-05-13T09:05:03.173Z,207.500000
2023-05-13T09:06:01.909Z,207.500000
2023-05-13T09:07:00.747Z,207.500000
2023-05-13T09:08:00.830Z,147.500000
2023-05-13T09:09:00.763Z,147.500000
2023-05-13T09:10:03.911Z,145.000000
2023-05-13T09:11:00.777Z,145.000000
2023-05-13T09:12:01.905Z,145.000000
2023-05-13T09:13:00.791Z,130.000000
2023-05-13T09:14:00.873Z,130.000000
2023-05-13T09:15:03.151Z,120.000000
2023-05-13T09:16:00.876Z,120.000000
2023-05-13T09:17:00.806Z,120.000000
2023-05-13T09:18:00.927Z,117.500000
2023-05-13T09:19:00.989Z,117.500000
2023-05-13T09:20:04.168Z,117.500000
2023-05-13T09:21:00.837Z,325.000000
2023-05-13T09:22:01.126Z,325.000000
2023-05-13T09:23:00.837Z,142.500000
2023-05-13T09:24:01.912Z,142.500000
2023-05-13T09:25:03.513Z,227.500000
2023-05-13T09:26:00.937Z,227.500000
2023-05-13T09:27:00.886Z,295.000000
2023-05-13T09:28:00.918Z,295.000000
2023-05-13T09:29:00.876Z,295.000000
2023-05-13T09:30:04.080Z,310.000000
2023-05-13T09:31:00.892Z,310.000000
2023-05-13T09:32:00.969Z,310.000000
2023-05-13T09:33:00.897Z,287.500000
2023-05-13T09:34:00.954Z,287.500000
2023-05-13T09:35:03.502Z,305.000000
2023-05-13T09:36:01.041Z,305.000000
2023-05-13T09:37:00.920Z,280.000000
2023-05-13T09:38:01.973Z,280.000000
2023-05-13T09:39:00.952Z,280.000000
2023-05-13T09:40:04.130Z,310.000000
2023-05-13T09:41:00.955Z,310.000000
2023-05-13T09:42:02.572Z,310.000000
2023-05-13T09:43:00.967Z,190.000000
2023-05-13T09:44:01.055Z,190.000000
2023-05-13T09:45:03.545Z,125.000000
2023-05-13T09:46:01.059Z,125.000000
2023-05-13T09:47:01.137Z,125.000000
2023-05-13T09:48:01.118Z,147.500000
2023-05-13T09:49:01.009Z,147.500000
2023-05-13T09:50:04.794Z,147.500000
2023-05-13T09:51:01.072Z,127.500000
2023-05-13T09:52:02.327Z,127.500000
2023-05-13T09:53:01.038Z,127.500000
2023-05-13T09:54:01.128Z,127.500000
2023-05-13T09:55:04.399Z,127.500000
2023-05-13T09:56:01.136Z,125.000000
2023-05-13T09:57:01.090Z,125.000000
2023-05-13T09:58:01.130Z,145.000000
2023-05-13T09:59:01.066Z,145.000000
2023-05-13T10:00:09.503Z,280.000000
2023-05-13T10:01:02.123Z,280.000000
2023-05-13T10:02:02.192Z,280.000000
2023-05-13T10:03:02.179Z,300.000000
2023-05-13T10:04:02.218Z,300.000000
2023-05-13T10:05:04.915Z,300.000000
2023-05-13T10:06:03.599Z,260.000000
2023-05-13T10:07:02.144Z,260.000000
2023-05-13T10:08:02.256Z,227.500000
2023-05-13T10:09:02.171Z,227.500000
2023-05-13T10:10:05.871Z,227.500000
2023-05-13T10:11:01.176Z,285.000000
2023-05-13T10:12:01.233Z,285.000000
2023-05-13T10:13:01.173Z,285.000000
2023-05-13T10:14:01.945Z,292.500000
2023-05-13T10:15:03.826Z,292.500000
2023-05-13T10:16:01.275Z,262.500000
2023-05-13T10:17:01.219Z,262.500000
2023-05-13T10:18:01.370Z,262.500000
2023-05-13T10:19:01.336Z,290.000000
2023-05-13T10:20:04.072Z,290.000000
2023-05-13T10:21:01.238Z,292.500000
2023-05-13T10:22:01.287Z,292.500000
2023-05-13T10:23:01.211Z,277.500000
2023-05-13T10:24:00.341Z,277.500000
2023-05-13T10:25:02.675Z,277.500000
2023-05-13T10:26:00.342Z,175.000000
2023-05-13T10:27:00.268Z,175.000000
2023-05-13T10:28:01.913Z,175.000000
2023-05-13T10:29:00.240Z,252.500000
2023-05-13T10:30:04.142Z,252.500000
2023-05-13T10:31:00.280Z,245.000000
2023-05-13T10:32:02.045Z,245.000000
2023-05-13T10:33:00.340Z,305.000000
2023-05-13T10:34:00.331Z,305.000000
2023-05-13T10:35:02.861Z,305.000000
2023-05-13T10:36:01.935Z,277.500000
2023-05-13T10:37:00.272Z,277.500000
2023-05-13T10:38:00.377Z,277.500000
2023-05-13T10:39:00.304Z,145.000000
2023-05-13T10:40:03.408Z,145.000000
2023-05-13T10:41:00.295Z,145.000000
2023-05-13T10:42:00.388Z,145.000000
2023-05-13T10:43:00.317Z,145.000000
2023-05-13T10:44:01.944Z,122.500000
2023-05-13T10:45:02.748Z,122.500000
2023-05-13T10:46:00.451Z,127.500000
2023-05-13T10:47:00.363Z,127.500000
2023-05-13T10:48:00.471Z,127.500000
2023-05-13T10:49:00.364Z,257.500000
2023-05-13T10:50:04.387Z,257.500000
2023-05-13T10:51:00.353Z,182.500000
2023-05-13T10:52:01.922Z,182.500000
2023-05-13T10:53:00.376Z,182.500000
2023-05-13T10:54:01.532Z,232.500000
2023-05-13T10:55:02.954Z,232.500000
2023-05-13T10:56:03.778Z,192.500000
2023-05-13T10:57:00.387Z,192.500000
2023-05-13T10:58:00.467Z,192.500000
2023-05-13T10:59:00.418Z,335.000000
2023-05-13T11:00:04.252Z,335.000000
2023-05-13T11:01:00.431Z,267.500000
2023-05-13T11:02:00.643Z,267.500000
2023-05-13T11:03:00.586Z,267.500000
2023-05-13T11:04:00.322Z,230.000000
2023-05-13T11:05:02.940Z,230.000000
2023-05-13T11:06:00.300Z,315.000000
2023-05-13T11:07:00.217Z,322.500000
2023-05-13T11:08:00.306Z,322.500000
2023-05-13T11:09:00.271Z,305.000000
2023-05-13T11:10:03.591Z,305.000000
2023-05-13T11:11:00.209Z,305.000000